createdAt,value
2018-02-07T00:00:54.133Z,-1.80
2018-02-07T00:01:54.025Z,-1.82
2018-02-07T00:02:53.944Z,-1.85
2018-02-07T00:03:53.855Z,-1.79
2018-02-07T00:04:53.782Z,-1.80
2018-02-07T00:05:53.693Z,-1.85
2018-02-07T00:06:53.599Z,-1.82
2018-02-07T00:07:53.528Z,-1.79
2018-02-07T00:08:53.432Z,-1.97
2018-02-07T00:09:53.342Z,-1.84
2018-02-07T00:10:53.263Z,-1.80
2018-02-07T00:11:53.178Z,-1.88
2018-02-07T00:12:53.088Z,-1.82
2018-02-07T00:13:53.004Z,-1.90
2018-02-07T00:14:52.913Z,-1.90
2018-02-07T00:15:52.827Z,-1.87
2018-02-07T00:16:52.746Z,-1.92
2018-02-07T00:17:52.648Z,-1.80
2018-02-07T00:18:52.568Z,-1.94
2018-02-07T00:19:52.481Z,-1.91
2018-02-07T00:20:52.399Z,-1.82
2018-02-07T00:21:52.320Z,-1.95
2018-02-07T00:22:52.229Z,-1.92
2018-02-07T00:23:52.141Z,-1.94
2018-02-07T00:24:52.056Z,-1.95
2018-02-07T00:25:51.974Z,-1.94
2018-02-07T00:26:51.880Z,-1.95
2018-02-07T00:27:51.804Z,-1.98
2018-02-07T00:28:51.727Z,-1.90
2018-02-07T00:29:51.631Z,-1.90
2018-02-07T00:30:51.544Z,-1.95
2018-02-07T00:31:51.452Z,-1.94
2018-02-07T00:32:51.386Z,-1.92
2018-02-07T00:33:51.275Z,-1.94
2018-02-07T00:34:51.197Z,-1.84
2018-02-07T00:35:51.113Z,-1.94
2018-02-07T00:36:51.030Z,-1.94
2018-02-07T00:37:50.943Z,-1.87
2018-02-07T00:38:50.854Z,-1.95
2018-02-07T00:39:50.782Z,-1.94
2018-02-07T00:40:50.680Z,-2.02
2018-02-07T00:41:50.591Z,-1.88
2018-02-07T00:42:50.528Z,-1.88
2018-02-07T00:43:50.435Z,-1.92
2018-02-07T00:44:50.348Z,-1.94
2018-02-07T00:45:50.256Z,-1.91
2018-02-07T00:46:50.180Z,-1.97
2018-02-07T00:47:50.076Z,-1.88
2018-02-07T00:48:50.011Z,-1.85
2018-02-07T00:49:49.905Z,-1.97
2018-02-07T00:50:49.834Z,-1.97
2018-02-07T00:51:49.735Z,-1.91
2018-02-07T00:52:49.661Z,-1.92
2018-02-07T00:53:49.585Z,-1.95
2018-02-07T00:54:49.480Z,-1.91
2018-02-07T00:55:49.407Z,-1.97
2018-02-07T00:56:49.309Z,-1.97
2018-02-07T00:57:49.221Z,-1.98
2018-02-07T00:58:49.138Z,-1.91
2018-02-07T00:59:49.057Z,-1.90
2018-02-07T01:00:48.954Z,-1.88
2018-02-07T01:01:48.889Z,-1.97
2018-02-07T01:02:48.805Z,-2.02
2018-02-07T01:03:48.710Z,-2.02
2018-02-07T01:04:48.634Z,-1.92
2018-02-07T01:05:48.528Z,-1.95
2018-02-07T01:06:48.446Z,-1.90
2018-02-07T01:07:48.362Z,-1.92
2018-02-07T01:08:48.279Z,-1.95
2018-02-07T01:09:48.188Z,-1.92
2018-02-07T01:10:48.110Z,-1.97
2018-02-07T01:11:48.029Z,-2.03
2018-02-07T01:12:47.933Z,-1.94
2018-02-07T01:13:47.849Z,-1.97
2018-02-07T01:14:47.762Z,-1.95
2018-02-07T01:15:47.691Z,-1.92
2018-02-07T01:16:47.581Z,-1.90
2018-02-07T01:17:47.498Z,-2.00
2018-02-07T01:18:47.416Z,-1.97
2018-02-07T01:19:47.330Z,-1.95
2018-02-07T01:20:47.249Z,-1.94
2018-02-07T01:21:47.161Z,-1.94
2018-02-07T01:22:47.089Z,-1.98
2018-02-07T01:23:46.998Z,-2.03
2018-02-07T01:24:46.898Z,-2.02
2018-02-07T01:25:46.808Z,-2.08
2018-02-07T01:26:46.738Z,-2.00
2018-02-07T01:27:46.643Z,-2.08
2018-02-07T01:28:46.561Z,-2.05
2018-02-07T01:29:46.485Z,-2.02
2018-02-07T01:30:46.382Z,-2.02
2018-02-07T01:31:46.294Z,-2.03
2018-02-07T01:32:46.212Z,-2.05
2018-02-07T01:33:46.122Z,-2.03
2018-02-07T01:34:46.041Z,-2.08
2018-02-07T01:35:45.954Z,-2.09
2018-02-07T01:36:45.875Z,-2.05
2018-02-07T01:37:45.791Z,-2.02
2018-02-07T01:38:45.707Z,-2.06
2018-02-07T01:39:45.611Z,-2.12
2018-02-07T01:40:45.526Z,-2.06
2018-02-07T01:41:45.433Z,-2.10
2018-02-07T01:42:45.351Z,-2.08
2018-02-07T01:43:45.262Z,-2.20
2018-02-07T01:44:45.179Z,-2.12
2018-02-07T01:45:45.104Z,-2.12
2018-02-07T01:46:45.013Z,-2.08
2018-02-07T01:47:44.927Z,-2.10
2018-02-07T01:48:44.842Z,-2.20
2018-02-07T01:49:44.759Z,-2.10
2018-02-07T01:50:44.669Z,-2.10
2018-02-07T01:51:44.576Z,-2.12
2018-02-07T01:52:44.487Z,-2.12
2018-02-07T01:53:44.404Z,-2.20
2018-02-07T01:54:44.313Z,-2.10
2018-02-07T01:55:44.236Z,-2.12
2018-02-07T01:56:44.168Z,-2.15
2018-02-07T01:57:44.065Z,-2.20
2018-02-07T01:58:43.993Z,-2.13
2018-02-07T01:59:43.891Z,-2.21
2018-02-07T02:00:43.812Z,-2.13
2018-02-07T02:01:43.717Z,-2.20
2018-02-07T02:02:43.627Z,-2.21
2018-02-07T02:03:43.555Z,-2.15
2018-02-07T02:04:43.469Z,-2.15
2018-02-07T02:05:43.387Z,-2.13
2018-02-07T02:06:43.320Z,-2.13
2018-02-07T02:07:43.206Z,-2.13
2018-02-07T02:08:43.113Z,-2.08
2018-02-07T02:09:43.046Z,-2.08
2018-02-07T02:10:42.936Z,-2.08
2018-02-07T02:11:42.856Z,-2.08
2018-02-07T02:12:42.771Z,-2.03
2018-02-07T02:13:42.687Z,-2.08
2018-02-07T02:14:42.604Z,-2.08
2018-02-07T02:15:42.517Z,-2.10
2018-02-07T02:16:42.426Z,-2.08
2018-02-07T02:17:42.350Z,-2.00
2018-02-07T02:18:42.252Z,-2.10
2018-02-07T02:19:42.164Z,-2.09
2018-02-07T02:20:42.086Z,-2.09
2018-02-07T02:21:41.989Z,-2.20
2018-02-07T02:22:41.916Z,-2.18
2018-02-07T02:23:41.831Z,-2.12
2018-02-07T02:24:41.741Z,-2.12
2018-02-07T02:25:41.657Z,-2.15
2018-02-07T02:26:41.565Z,-2.13
2018-02-07T02:27:41.490Z,-2.27
2018-02-07T02:28:41.395Z,-2.16
2018-02-07T02:29:41.308Z,-2.23
2018-02-07T02:30:41.222Z,-2.20
2018-02-07T02:31:41.143Z,-2.24
2018-02-07T02:32:41.055Z,-2.18
2018-02-07T02:33:40.977Z,-2.15
2018-02-07T02:34:40.890Z,-2.08
2018-02-07T02:35:40.793Z,-2.06
2018-02-07T02:36:40.713Z,-2.08
2018-02-07T02:37:40.619Z,-2.12
2018-02-07T02:38:40.543Z,-2.10
2018-02-07T02:39:40.443Z,-2.13
2018-02-07T02:40:40.352Z,-2.21
2018-02-07T02:41:40.285Z,-2.18
2018-02-07T02:42:40.196Z,-2.13
2018-02-07T02:43:40.128Z,-2.20
2018-02-07T02:44:40.026Z,-2.12
2018-02-07T02:45:39.931Z,-2.13
2018-02-07T02:46:39.845Z,-2.16
2018-02-07T02:47:39.771Z,-2.23
2018-02-07T02:48:39.668Z,-2.20
2018-02-07T02:49:39.589Z,-2.20
2018-02-07T02:50:39.493Z,-2.24
2018-02-07T02:51:39.415Z,-2.10
2018-02-07T02:52:39.337Z,-2.13
2018-02-07T02:53:39.243Z,-2.09
2018-02-07T02:54:39.176Z,-2.10
2018-02-07T02:55:39.084Z,-2.09
2018-02-07T02:56:38.981Z,-2.08
2018-02-07T02:57:38.896Z,-2.06
2018-02-07T02:58:38.821Z,-2.02
2018-02-07T02:59:38.736Z,-2.05
2018-02-07T03:00:38.650Z,-2.06
2018-02-07T03:01:38.570Z,-2.02
2018-02-07T03:02:38.471Z,-2.03
2018-02-07T03:03:38.385Z,-2.02
2018-02-07T03:04:38.292Z,-2.03
2018-02-07T03:05:38.215Z,-2.03
2018-02-07T03:06:38.119Z,-2.08
2018-02-07T03:07:38.033Z,-1.97
2018-02-07T03:08:37.958Z,-2.05
2018-02-07T03:09:37.868Z,-2.02
2018-02-07T03:10:37.785Z,-2.10
2018-02-07T03:11:37.697Z,-2.10
2018-02-07T03:12:37.623Z,-2.08
2018-02-07T03:13:37.528Z,-2.03
2018-02-07T03:14:37.435Z,-2.10
2018-02-07T03:15:37.345Z,-2.15
2018-02-07T03:16:37.275Z,-2.03
2018-02-07T03:17:37.184Z,-2.09
2018-02-07T03:18:37.102Z,-2.06
2018-02-07T03:19:37.025Z,-2.00
2018-02-07T03:20:36.922Z,-2.05
2018-02-07T03:21:36.848Z,-2.00
2018-02-07T03:22:36.749Z,-2.05
2018-02-07T03:23:36.661Z,-2.05
2018-02-07T03:24:36.574Z,-2.13
2018-02-07T03:25:36.496Z,-2.05
2018-02-07T03:26:36.413Z,-2.06
2018-02-07T03:27:36.330Z,-2.05
2018-02-07T03:28:36.254Z,-2.03
2018-02-07T03:29:36.152Z,-2.03
2018-02-07T03:30:36.060Z,-2.03
2018-02-07T03:31:35.976Z,-2.05
2018-02-07T03:32:35.892Z,-1.98
2018-02-07T03:33:35.807Z,-1.90
2018-02-07T03:34:35.720Z,-2.03
2018-02-07T03:35:35.622Z,-1.97
2018-02-07T03:36:35.559Z,-2.02
2018-02-07T03:37:35.463Z,-2.02
2018-02-07T03:38:35.376Z,-2.06
2018-02-07T03:39:35.290Z,-2.05
2018-02-07T03:40:35.203Z,-2.05
2018-02-07T03:41:35.113Z,-2.05
2018-02-07T03:42:35.026Z,-2.06
2018-02-07T03:43:34.946Z,-2.02
2018-02-07T03:44:34.853Z,-2.00
2018-02-07T03:45:34.775Z,-2.03
2018-02-07T03:46:34.691Z,-2.03
2018-02-07T03:47:34.603Z,-2.08
2018-02-07T03:48:34.512Z,-1.98
2018-02-07T03:49:34.429Z,-2.00
2018-02-07T03:50:34.342Z,-1.94
2018-02-07T03:51:34.250Z,-1.91
2018-02-07T03:52:34.170Z,-1.91
2018-02-07T03:53:34.074Z,-2.05
2018-02-07T03:54:34.001Z,-2.05
2018-02-07T03:55:33.921Z,-1.98
2018-02-07T03:56:33.826Z,-2.06
2018-02-07T03:57:33.742Z,-2.06
2018-02-07T03:58:33.651Z,-2.03
2018-02-07T03:59:33.563Z,-1.94
2018-02-07T04:00:33.483Z,-1.98
2018-02-07T04:01:33.398Z,-1.95
2018-02-07T04:02:33.303Z,-1.90
2018-02-07T04:03:33.227Z,-1.98
2018-02-07T04:04:33.137Z,-1.98
2018-02-07T04:05:33.053Z,-1.98
2018-02-07T04:06:32.966Z,-1.97
2018-02-07T04:07:32.874Z,-2.00
2018-02-07T04:08:32.802Z,-1.98
2018-02-07T04:09:32.710Z,-2.03
2018-02-07T04:10:32.632Z,-2.05
2018-02-07T04:11:32.535Z,-2.03
2018-02-07T04:12:32.453Z,-2.00
2018-02-07T04:13:32.383Z,-2.03
2018-02-07T04:14:32.275Z,-1.97
2018-02-07T04:15:32.193Z,-2.00
2018-02-07T04:16:32.106Z,-2.02
2018-02-07T04:17:32.030Z,-2.06
2018-02-07T04:18:31.932Z,-2.05
2018-02-07T04:19:31.860Z,-2.06
2018-02-07T04:20:31.754Z,-2.05
2018-02-07T04:21:31.683Z,-2.05
2018-02-07T04:22:31.590Z,-2.05
2018-02-07T04:23:31.507Z,-2.05
2018-02-07T04:24:31.425Z,-2.08
2018-02-07T04:25:31.326Z,-2.00
2018-02-07T04:26:31.246Z,-1.98
2018-02-07T04:27:31.155Z,-2.05
2018-02-07T04:28:31.082Z,-2.03
2018-02-07T04:29:30.984Z,-2.08
2018-02-07T04:30:30.914Z,-2.03
2018-02-07T04:31:30.832Z,-2.08
2018-02-07T04:32:30.734Z,-1.98
2018-02-07T04:33:30.644Z,-1.97
2018-02-07T04:34:30.556Z,-2.03
2018-02-07T04:35:30.474Z,-2.05
2018-02-07T04:36:30.378Z,-2.02
2018-02-07T04:37:30.301Z,-2.05
2018-02-07T04:38:30.213Z,-1.97
2018-02-07T04:39:30.129Z,-2.05
2018-02-07T04:40:30.059Z,-2.06
2018-02-07T04:41:29.959Z,-2.06
2018-02-07T04:42:29.893Z,-2.00
2018-02-07T04:43:29.782Z,-2.02
2018-02-07T04:44:29.692Z,-2.08
2018-02-07T04:45:29.613Z,-2.05
2018-02-07T04:46:29.532Z,-2.08
2018-02-07T04:47:29.433Z,-2.05
2018-02-07T04:48:29.360Z,-1.98
2018-02-07T04:49:29.268Z,-1.98
2018-02-07T04:50:29.183Z,-1.94
2018-02-07T04:51:29.101Z,-2.05
2018-02-07T04:52:29.005Z,-1.98
2018-02-07T04:53:28.926Z,-1.91
2018-02-07T04:54:28.829Z,-2.00
2018-02-07T04:55:28.744Z,-1.95
2018-02-07T04:56:28.678Z,-1.91
2018-02-07T04:57:28.582Z,-2.02
2018-02-07T04:58:28.502Z,-1.94
2018-02-07T04:59:28.421Z,-2.08
2018-02-07T05:00:28.334Z,-2.02
2018-02-07T05:01:28.238Z,-2.13
2018-02-07T05:02:28.156Z,-2.12
2018-02-07T05:03:28.061Z,-2.13
2018-02-07T05:04:27.990Z,-2.21
2018-02-07T05:05:27.897Z,-2.10
2018-02-07T05:06:27.815Z,-2.15
2018-02-07T05:07:27.730Z,-2.18
2018-02-07T05:08:27.633Z,-2.12
2018-02-07T05:09:27.553Z,-2.12
2018-02-07T05:10:27.460Z,-2.05
2018-02-07T05:11:27.372Z,-2.15
2018-02-07T05:12:27.292Z,-2.18
2018-02-07T05:13:27.205Z,-2.20
2018-02-07T05:14:27.127Z,-2.16
2018-02-07T05:15:27.042Z,-2.15
2018-02-07T05:16:26.946Z,-2.12
2018-02-07T05:17:26.864Z,-2.16
2018-02-07T05:18:26.772Z,-2.12
2018-02-07T05:19:26.685Z,-2.20
2018-02-07T05:20:26.617Z,-2.20
2018-02-07T05:21:26.508Z,-2.16
2018-02-07T05:22:26.435Z,-2.20
2018-02-07T05:23:26.350Z,-2.18
2018-02-07T05:24:26.257Z,-2.23
2018-02-07T05:25:26.178Z,-2.21
2018-02-07T05:26:26.082Z,-2.20
2018-02-07T05:27:26.003Z,-2.10
2018-02-07T05:28:25.914Z,-2.08
2018-02-07T05:29:25.825Z,-2.10
2018-02-07T05:30:25.744Z,-2.18
2018-02-07T05:31:25.665Z,-2.05
2018-02-07T05:32:25.575Z,-2.08
2018-02-07T05:33:25.498Z,-2.06
2018-02-07T05:34:25.413Z,-2.10
2018-02-07T05:35:25.308Z,-2.12
2018-02-07T05:36:25.230Z,-2.10
2018-02-07T05:37:25.136Z,-2.24
2018-02-07T05:38:25.067Z,-2.21
2018-02-07T05:39:24.966Z,-2.18
2018-02-07T05:40:24.889Z,-2.15
2018-02-07T05:41:24.811Z,-2.21
2018-02-07T05:42:24.720Z,-2.13
2018-02-07T05:43:24.629Z,-2.18
2018-02-07T05:44:24.537Z,-2.21
2018-02-07T05:45:24.453Z,-2.15
2018-02-07T05:46:24.360Z,-2.16
2018-02-07T05:47:24.291Z,-2.16
2018-02-07T05:48:24.190Z,-2.15
2018-02-07T05:49:24.113Z,-2.21
2018-02-07T05:50:24.031Z,-2.10
2018-02-07T05:51:23.942Z,-2.08
2018-02-07T05:52:23.852Z,-2.08
2018-02-07T05:53:23.771Z,-2.08
2018-02-07T05:54:23.673Z,-2.20
2018-02-07T05:55:23.587Z,-2.05
2018-02-07T05:56:23.520Z,-2.03
2018-02-07T05:57:23.411Z,-1.98
2018-02-07T05:58:23.345Z,-2.00
2018-02-07T05:59:23.253Z,-2.08
2018-02-07T06:00:23.162Z,-2.10
2018-02-07T06:01:23.095Z,-2.05
2018-02-07T06:02:22.990Z,-2.06
2018-02-07T06:03:22.902Z,-2.03
2018-02-07T06:04:22.826Z,-2.05
2018-02-07T06:05:22.732Z,-2.12
2018-02-07T06:06:22.642Z,-2.18
2018-02-07T06:07:22.555Z,-2.10
2018-02-07T06:08:22.487Z,-2.08
2018-02-07T06:09:22.393Z,-2.21
2018-02-07T06:10:22.304Z,-2.00
2018-02-07T06:11:22.215Z,-2.12
2018-02-07T06:12:22.148Z,-2.05
2018-02-07T06:13:22.044Z,-2.08
2018-02-07T06:14:21.959Z,-2.08
2018-02-07T06:15:21.876Z,-2.12
2018-02-07T06:16:21.791Z,-2.03
2018-02-07T06:17:21.721Z,-2.03
2018-02-07T06:18:21.619Z,-1.98
2018-02-07T06:19:21.528Z,-2.05
2018-02-07T06:20:21.449Z,-2.08
2018-02-07T06:21:21.370Z,-2.00
2018-02-07T06:22:21.271Z,-2.06
2018-02-07T06:23:21.195Z,-2.03
2018-02-07T06:24:21.091Z,-2.00
2018-02-07T06:25:21.022Z,-2.00
2018-02-07T06:26:20.918Z,-2.00
2018-02-07T06:27:20.841Z,-2.08
2018-02-07T06:28:20.768Z,-1.98
2018-02-07T06:29:20.669Z,-1.97
2018-02-07T06:30:20.582Z,-1.95
2018-02-07T06:31:20.497Z,-2.00
2018-02-07T06:32:20.404Z,-1.98
2018-02-07T06:33:20.341Z,-2.03
2018-02-07T06:34:20.232Z,-2.02
2018-02-07T06:35:20.157Z,-1.97
2018-02-07T06:36:20.072Z,-2.00
2018-02-07T06:37:19.993Z,-1.97
2018-02-07T06:38:19.895Z,-1.88
2018-02-07T06:39:19.819Z,-1.88
2018-02-07T06:40:19.716Z,-2.05
2018-02-07T06:41:19.636Z,-2.05
2018-02-07T06:42:19.549Z,-2.08
2018-02-07T06:43:19.472Z,-2.00
2018-02-07T06:44:19.388Z,-2.02
2018-02-07T06:45:19.292Z,-1.94
2018-02-07T06:46:19.221Z,-2.00
2018-02-07T06:47:19.121Z,-1.94
2018-02-07T06:48:19.031Z,-1.88
2018-02-07T06:49:18.954Z,-1.97
2018-02-07T06:50:18.874Z,-1.97
2018-02-07T06:51:18.776Z,-1.88
2018-02-07T06:52:18.699Z,-2.00
2018-02-07T06:53:18.617Z,-1.97
2018-02-07T06:54:18.522Z,-1.95
2018-02-07T06:55:18.436Z,-1.97
2018-02-07T06:56:18.348Z,-1.95
2018-02-07T06:57:18.274Z,-1.94
2018-02-07T06:58:18.172Z,-2.03
2018-02-07T06:59:18.087Z,-1.98
2018-02-07T07:00:18.031Z,-1.94
2018-02-07T07:01:17.924Z,-1.95
2018-02-07T07:02:17.849Z,-1.98
2018-02-07T07:03:17.755Z,-1.98
2018-02-07T07:04:17.660Z,-1.95
2018-02-07T07:05:17.623Z,-1.98
2018-02-07T07:06:17.484Z,-1.97
2018-02-07T07:07:17.396Z,-1.90
2018-02-07T07:08:17.324Z,-1.90
2018-02-07T07:09:17.223Z,-1.92
2018-02-07T07:10:17.152Z,-1.91
2018-02-07T07:11:17.065Z,-1.85
2018-02-07T07:12:16.972Z,-1.95
2018-02-07T07:13:16.888Z,-1.88
2018-02-07T07:14:16.794Z,-1.92
2018-02-07T07:15:16.712Z,-1.90
2018-02-07T07:16:16.624Z,-1.88
2018-02-07T07:17:16.533Z,-2.03
2018-02-07T07:18:16.450Z,-1.90
2018-02-07T07:19:16.376Z,-1.88
2018-02-07T07:20:16.285Z,-1.90
2018-02-07T07:21:16.202Z,-1.88
2018-02-07T07:22:16.112Z,-1.88
2018-02-07T07:23:16.028Z,-1.97
2018-02-07T07:24:15.941Z,-1.87
2018-02-07T07:25:15.846Z,-1.87
2018-02-07T07:26:15.765Z,-1.94
2018-02-07T07:27:15.677Z,-1.90
2018-02-07T07:28:15.597Z,-1.94
2018-02-07T07:29:15.518Z,-1.84
2018-02-07T07:30:15.425Z,-1.92
2018-02-07T07:31:15.352Z,-1.87
2018-02-07T07:32:15.253Z,-1.82
2018-02-07T07:33:15.162Z,-1.85
2018-02-07T07:34:15.083Z,-1.77
2018-02-07T07:35:14.994Z,-1.84
2018-02-07T07:36:14.904Z,-1.73
2018-02-07T07:37:14.826Z,-1.67
2018-02-07T07:38:14.736Z,-1.67
2018-02-07T07:39:14.648Z,-1.70
2018-02-07T07:40:14.569Z,-1.62
2018-02-07T07:41:14.477Z,-1.61
2018-02-07T07:42:14.397Z,-1.62
2018-02-07T07:43:14.310Z,-1.62
2018-02-07T07:44:14.226Z,-1.54
2018-02-07T07:45:14.136Z,-1.52
2018-02-07T07:46:14.052Z,-1.58
2018-02-07T07:47:13.968Z,-1.64
2018-02-07T07:48:13.882Z,-1.76
2018-02-07T07:49:13.788Z,-1.67
2018-02-07T07:50:13.704Z,-1.61
2018-02-07T07:51:13.628Z,-1.56
2018-02-07T07:52:13.524Z,-1.49
2018-02-07T07:53:13.445Z,-1.56
2018-02-07T07:54:13.354Z,-1.51
2018-02-07T07:55:13.277Z,-1.46
2018-02-07T07:56:13.196Z,-1.45
2018-02-07T07:57:13.104Z,-1.55
2018-02-07T07:58:13.049Z,-1.54
2018-02-07T07:59:12.933Z,-1.45
2018-02-07T08:00:12.839Z,-1.48
2018-02-07T08:01:12.784Z,-1.31
2018-02-07T08:02:12.677Z,-1.33
2018-02-07T08:03:12.591Z,-1.35
2018-02-07T08:04:12.531Z,-1.40
2018-02-07T08:05:12.428Z,-1.37
2018-02-07T08:06:12.332Z,-1.34
2018-02-07T08:07:12.246Z,-1.33
2018-02-07T08:08:12.154Z,-1.37
2018-02-07T08:09:12.080Z,-1.34
2018-02-07T08:10:11.996Z,-1.38
2018-02-07T08:11:11.901Z,-1.34
2018-02-07T08:12:11.831Z,-1.28
2018-02-07T08:13:11.729Z,-1.31
2018-02-07T08:14:11.651Z,-1.28
2018-02-07T08:15:11.559Z,-1.19
2018-02-07T08:16:11.480Z,-1.20
2018-02-07T08:17:11.407Z,-1.20
2018-02-07T08:18:11.308Z,-1.17
2018-02-07T08:19:11.227Z,-1.20
2018-02-07T08:20:11.131Z,-1.30
2018-02-07T08:21:11.054Z,-1.31
2018-02-07T08:22:10.962Z,-1.19
2018-02-07T08:23:10.882Z,-1.22
2018-02-07T08:24:10.790Z,-1.30
2018-02-07T08:25:10.714Z,-1.27
2018-02-07T08:26:10.634Z,-1.28
2018-02-07T08:27:10.532Z,-1.27
2018-02-07T08:28:10.454Z,-1.19
2018-02-07T08:29:10.380Z,-1.15
2018-02-07T08:30:10.286Z,-1.17
2018-02-07T08:31:10.245Z,-1.16
2018-02-07T08:32:10.155Z,-1.17
2018-02-07T08:33:10.239Z,-1.15
2018-02-07T08:34:10.104Z,-1.12
2018-02-07T08:35:10.189Z,-1.10
2018-02-07T08:36:10.097Z,-1.12
2018-02-07T08:37:10.019Z,-1.05
2018-02-07T08:38:09.858Z,-0.92
2018-02-07T08:39:09.511Z,-0.86
2018-02-07T08:40:09.433Z,-0.80
2018-02-07T08:41:09.353Z,-0.97
2018-02-07T08:42:09.256Z,-1.04
2018-02-07T08:43:09.169Z,-1.01
2018-02-07T08:44:09.088Z,-1.01
2018-02-07T08:45:09.020Z,-1.02
2018-02-07T08:46:08.918Z,-0.99
2018-02-07T08:47:08.837Z,-1.13
2018-02-07T08:48:08.746Z,-1.04
2018-02-07T08:49:08.665Z,-0.95
2018-02-07T08:50:08.582Z,-0.95
2018-02-07T08:51:08.485Z,-0.82
2018-02-07T08:52:08.440Z,-0.85
2018-02-07T08:53:08.385Z,-0.75
2018-02-07T08:54:08.263Z,-0.65
2018-02-07T08:55:08.152Z,-0.72
2018-02-07T08:56:08.070Z,-0.80
2018-02-07T08:57:07.985Z,-0.80
2018-02-07T08:58:07.896Z,-0.80
2018-02-07T08:59:07.815Z,-0.92
2018-02-07T09:00:07.736Z,-0.79
2018-02-07T09:01:07.634Z,-0.86
2018-02-07T09:02:07.554Z,-0.83
2018-02-07T09:03:07.489Z,-0.75
2018-02-07T09:04:07.386Z,-0.76
2018-02-07T09:05:07.306Z,-0.61
2018-02-07T09:06:07.212Z,-0.75
2018-02-07T09:07:07.138Z,-0.72
2018-02-07T09:08:07.052Z,-0.79
2018-02-07T09:09:06.959Z,-0.85
2018-02-07T09:10:06.886Z,-0.91
2018-02-07T09:11:06.787Z,-0.83
2018-02-07T09:12:06.709Z,-0.89
2018-02-07T09:13:06.641Z,-0.82
2018-02-07T09:14:06.536Z,-0.85
2018-02-07T09:15:06.452Z,-0.78
2018-02-07T09:16:06.368Z,-0.91
2018-02-07T09:17:06.284Z,-0.75
2018-02-07T09:18:06.213Z,-0.72
2018-02-07T09:19:06.114Z,-0.61
2018-02-07T09:20:06.027Z,-0.57
2018-02-07T09:21:05.942Z,-0.60
2018-02-07T09:22:05.888Z,-0.55
2018-02-07T09:23:05.776Z,-0.57
2018-02-07T09:24:05.694Z,-0.40
2018-02-07T09:25:05.600Z,-0.52
2018-02-07T09:26:05.518Z,-0.57
2018-02-07T09:27:05.445Z,-0.60
2018-02-07T09:28:05.353Z,-0.54
2018-02-07T09:29:05.263Z,-0.43
2018-02-07T09:30:05.192Z,-0.46
2018-02-07T09:31:05.106Z,-0.47
2018-02-07T09:32:05.021Z,-0.26
2018-02-07T09:33:04.929Z,-0.31
2018-02-07T09:34:04.844Z,-0.19
2018-02-07T09:35:04.760Z,-0.15
2018-02-07T09:36:04.678Z,-0.08
2018-02-07T09:37:04.594Z,-0.08
2018-02-07T09:38:04.501Z,0.11
2018-02-07T09:39:04.414Z,0.13
2018-02-07T09:40:04.340Z,0.00
2018-02-07T09:41:04.253Z,-0.01
2018-02-07T09:42:04.171Z,0.11
2018-02-07T09:43:04.094Z,0.13
2018-02-07T09:44:03.990Z,-0.11
2018-02-07T09:45:03.918Z,-0.18
2018-02-07T09:46:03.828Z,-0.14
2018-02-07T09:47:03.739Z,-0.19
2018-02-07T09:48:03.659Z,-0.34
2018-02-07T09:49:03.587Z,-0.29
2018-02-07T09:50:03.492Z,-0.25
2018-02-07T09:51:03.411Z,-0.18
2018-02-07T09:52:03.319Z,-0.19
2018-02-07T09:53:03.244Z,-0.36
2018-02-07T09:54:03.153Z,-0.34
2018-02-07T09:55:03.066Z,-0.42
2018-02-07T09:56:02.984Z,-0.46
2018-02-07T09:57:02.897Z,-0.33
2018-02-07T09:58:02.816Z,-0.43
2018-02-07T09:59:02.733Z,-0.31
2018-02-07T10:00:02.645Z,-0.25
2018-02-07T10:01:02.564Z,-0.03
2018-02-07T10:02:02.483Z,0.02
2018-02-07T10:03:02.394Z,0.00
2018-02-07T10:04:02.303Z,0.13
2018-02-07T10:05:02.226Z,0.20
2018-02-07T10:06:02.142Z,0.38
2018-02-07T10:07:02.056Z,0.36
2018-02-07T10:08:01.973Z,0.41
2018-02-07T10:09:01.882Z,0.17
2018-02-07T10:10:01.806Z,0.17
2018-02-07T10:11:01.722Z,0.15
2018-02-07T10:12:01.630Z,0.24
2018-02-07T10:13:01.549Z,0.28
2018-02-07T10:14:01.466Z,0.29
2018-02-07T10:15:01.380Z,0.38
2018-02-07T10:16:01.301Z,0.44
2018-02-07T10:17:01.206Z,0.50
2018-02-07T10:18:01.126Z,0.39
2018-02-07T10:19:01.052Z,0.49
2018-02-07T10:20:00.958Z,0.62
2018-02-07T10:21:00.870Z,0.84
2018-02-07T10:22:00.792Z,0.76
2018-02-07T10:23:00.705Z,0.93
2018-02-07T10:24:00.621Z,0.98
2018-02-07T10:25:00.544Z,1.02
2018-02-07T10:26:00.461Z,0.87
2018-02-07T10:27:00.377Z,0.98
2018-02-07T10:28:00.295Z,1.08
2018-02-07T10:29:00.200Z,1.11
2018-02-07T10:30:00.112Z,0.96
2018-02-07T10:31:00.046Z,1.12
2018-02-07T10:31:59.963Z,1.22
2018-02-07T10:32:59.857Z,1.11
2018-02-07T10:33:59.774Z,1.41
2018-02-07T10:34:59.727Z,1.45
2018-02-07T10:35:59.606Z,1.59
2018-02-07T10:36:59.523Z,1.73
2018-02-07T10:37:59.448Z,1.79
2018-02-07T10:38:59.361Z,1.66
2018-02-07T10:39:59.274Z,1.63
2018-02-07T10:40:59.182Z,1.59
2018-02-07T10:41:59.125Z,1.66
2018-02-07T10:42:59.023Z,1.84
2018-02-07T10:43:58.937Z,1.84
2018-02-07T10:44:58.873Z,1.65
2018-02-07T10:45:58.775Z,1.80
2018-02-07T10:46:58.696Z,1.95
2018-02-07T10:47:58.600Z,2.12
2018-02-07T10:48:58.521Z,2.30
2018-02-07T10:49:58.471Z,2.36
2018-02-07T10:50:58.354Z,2.52
2018-02-07T10:51:58.275Z,2.53
2018-02-07T10:52:58.202Z,2.60
2018-02-07T10:53:58.096Z,2.43
2018-02-07T10:54:58.026Z,2.57
2018-02-07T10:55:57.950Z,2.74
2018-02-07T10:56:57.851Z,2.92
2018-02-07T10:57:57.777Z,2.75
2018-02-07T10:58:57.703Z,2.43
2018-02-07T10:59:57.623Z,2.34
2018-02-07T11:00:57.525Z,2.36
2018-02-07T11:01:57.434Z,2.46
2018-02-07T11:02:57.370Z,2.48
2018-02-07T11:03:57.280Z,2.48
2018-02-07T11:04:57.187Z,2.56
2018-02-07T11:05:57.125Z,2.53
2018-02-07T11:06:57.030Z,2.57
2018-02-07T11:07:56.938Z,2.78
2018-02-07T11:08:56.881Z,2.49
2018-02-07T11:09:56.776Z,2.23
2018-02-07T11:10:56.703Z,2.38
2018-02-07T11:11:56.627Z,2.84
2018-02-07T11:12:56.524Z,3.00
2018-02-07T11:13:56.457Z,2.95
2018-02-07T11:14:56.368Z,2.77
2018-02-07T11:15:56.279Z,2.84
2018-02-07T11:16:56.204Z,2.78
2018-02-07T11:17:56.113Z,2.69
2018-02-07T11:18:56.030Z,2.67
2018-02-07T11:19:55.955Z,2.56
2018-02-07T11:20:55.868Z,2.57
2018-02-07T11:21:55.791Z,2.60
2018-02-07T11:22:55.708Z,2.78
2018-02-07T11:23:55.624Z,2.89
2018-02-07T11:24:55.545Z,2.74
2018-02-07T11:25:55.460Z,2.96
2018-02-07T11:26:55.376Z,3.10
2018-02-07T11:27:55.329Z,2.87
2018-02-07T11:28:55.203Z,2.84
2018-02-07T11:29:55.128Z,2.93
2018-02-07T11:30:55.042Z,3.05
2018-02-07T11:31:54.963Z,3.10
2018-02-07T11:32:54.879Z,3.10
2018-02-07T11:33:54.789Z,3.14
2018-02-07T11:34:54.729Z,3.28
2018-02-07T11:35:54.639Z,3.43
2018-02-07T11:36:54.552Z,3.23
2018-02-07T11:37:54.473Z,3.45
2018-02-07T11:38:54.395Z,3.73
2018-02-07T11:39:54.302Z,3.88
2018-02-07T11:40:54.230Z,4.04
2018-02-07T11:41:54.156Z,4.20
2018-02-07T11:42:54.052Z,4.70
2018-02-07T11:43:53.980Z,4.65
2018-02-07T11:44:53.891Z,4.41
2018-02-07T11:45:53.823Z,4.77
2018-02-07T11:46:53.765Z,5.10
2018-02-07T11:47:53.654Z,5.33
2018-02-07T11:48:53.587Z,5.30
2018-02-07T11:49:53.504Z,5.38
2018-02-07T11:50:53.429Z,5.38
2018-02-07T11:51:53.334Z,5.82
2018-02-07T11:52:53.244Z,6.41
2018-02-07T11:53:53.176Z,6.28
2018-02-07T11:54:53.085Z,5.64
2018-02-07T11:55:53.002Z,5.28
2018-02-07T11:56:52.937Z,5.76
2018-02-07T11:57:52.871Z,5.57
2018-02-07T11:58:52.755Z,5.79
2018-02-07T11:59:52.687Z,5.63
2018-02-07T12:00:52.604Z,5.40
2018-02-07T12:01:52.521Z,6.01
2018-02-07T12:02:52.579Z,6.01
2018-02-07T12:03:52.361Z,4.84
2018-02-07T12:04:52.278Z,4.89
2018-02-07T12:05:52.211Z,4.55
2018-02-07T12:06:52.122Z,4.11
2018-02-07T12:07:52.031Z,4.59
2018-02-07T12:08:51.961Z,4.70
2018-02-07T12:09:51.895Z,5.00
2018-02-07T12:10:51.796Z,4.62
2018-02-07T12:11:51.727Z,4.30
2018-02-07T12:12:51.629Z,4.58
2018-02-07T12:13:51.560Z,4.58
2018-02-07T12:14:51.478Z,5.18
2018-02-07T12:15:51.394Z,4.42
2018-02-07T12:16:51.337Z,4.16
2018-02-07T12:17:51.236Z,4.00
2018-02-07T12:18:51.170Z,3.97
2018-02-07T12:19:51.076Z,4.23
2018-02-07T12:20:50.997Z,3.84
2018-02-07T12:21:50.915Z,3.65
2018-02-07T12:22:50.836Z,3.33
2018-02-07T12:23:50.758Z,3.78
2018-02-07T12:24:50.686Z,3.69
2018-02-07T12:25:50.585Z,3.87
2018-02-07T12:26:50.513Z,3.54
2018-02-07T12:27:50.436Z,3.48
2018-02-07T12:28:50.348Z,3.70
2018-02-07T12:29:50.268Z,4.32
2018-02-07T12:30:50.189Z,4.85
2018-02-07T12:31:50.112Z,5.28
2018-02-07T12:32:50.501Z,5.10
2018-02-07T12:33:49.947Z,5.46
2018-02-07T12:34:49.860Z,5.33
2018-02-07T12:35:49.786Z,4.54
2018-02-07T12:36:49.708Z,3.96
2018-02-07T12:37:49.625Z,4.16
2018-02-07T12:38:49.544Z,4.78
2018-02-07T12:39:49.462Z,4.97
2018-02-07T12:40:49.388Z,4.78
2018-02-07T12:41:49.309Z,5.21
2018-02-07T12:42:49.211Z,5.82
2018-02-07T12:43:49.155Z,6.28
2018-02-07T12:44:49.065Z,6.79
2018-02-07T12:45:48.975Z,6.03
2018-02-07T12:46:48.888Z,5.89
2018-02-07T12:47:48.813Z,5.68
2018-02-07T12:48:48.752Z,6.11
2018-02-07T12:49:48.937Z,5.99
2018-02-07T12:50:49.187Z,6.31
2018-02-07T12:51:48.629Z,6.58
2018-02-07T12:52:48.840Z,6.22
2018-02-07T12:53:48.797Z,5.86
2018-02-07T12:54:48.272Z,5.49
2018-02-07T12:55:48.264Z,5.86
2018-02-07T12:56:48.159Z,6.37
2018-02-07T12:57:48.008Z,6.59